sensor_id;sensor_type;location;lat;lon;timestamp;temperature;humidity
14670;DHT22;7423;48.722;9.350;2023-06-04T00:02:19;20.40;92.10
14670;DHT22;7423;48.722;9.350;2023-06-04T00:04:46;20.40;92.20
14670;DHT22;7423;48.722;9.350;2023-06-04T00:07:13;20.40;92.40
14670;DHT22;7423;48.722;9.350;2023-06-04T00:09:40;20.30;92.30
14670;DHT22;7423;48.722;9.350;2023-06-04T00:12:07;20.20;92.50
14670;DHT22;7423;48.722;9.350;2023-06-04T00:14:34;20.20;92.70
14670;DHT22;7423;48.722;9.350;2023-06-04T00:17:01;20.30;92.80
14670;DHT22;7423;48.722;9.350;2023-06-04T00:19:28;20.20;92.80
14670;DHT22;7423;48.722;9.350;2023-06-04T00:21:54;20.10;92.90
14670;DHT22;7423;48.722;9.350;2023-06-04T00:24:21;20.10;92.90
14670;DHT22;7423;48.722;9.350;2023-06-04T00:26:48;20.10;92.90
14670;DHT22;7423;48.722;9.350;2023-06-04T00:29:15;20.00;92.90
14670;DHT22;7423;48.722;9.350;2023-06-04T00:31:42;20.00;92.90
14670;DHT22;7423;48.722;9.350;2023-06-04T00:34:10;19.90;92.90
14670;DHT22;7423;48.722;9.350;2023-06-04T00:36:37;19.90;93.00
14670;DHT22;7423;48.722;9.350;2023-06-04T00:39:05;19.80;93.10
14670;DHT22;7423;48.722;9.350;2023-06-04T00:41:32;19.80;93.20
14670;DHT22;7423;48.722;9.350;2023-06-04T00:43:59;19.70;93.20
14670;DHT22;7423;48.722;9.350;2023-06-04T00:46:28;19.60;93.30
14670;DHT22;7423;48.722;9.350;2023-06-04T00:48:56;19.60;93.50
14670;DHT22;7423;48.722;9.350;2023-06-04T00:51:23;19.50;93.90
14670;DHT22;7423;48.722;9.350;2023-06-04T00:53:50;19.80;93.60
14670;DHT22;7423;48.722;9.350;2023-06-04T00:56:18;19.50;93.60
14670;DHT22;7423;48.722;9.350;2023-06-04T00:58:46;19.50;93.70
14670;DHT22;7423;48.722;9.350;2023-06-04T01:01:30;19.50;93.60
14670;DHT22;7423;48.722;9.350;2023-06-04T01:04:01;19.40;93.60
14670;DHT22;7423;48.722;9.350;2023-06-04T01:06:39;19.40;93.70
14670;DHT22;7423;48.722;9.350;2023-06-04T01:09:10;19.40;93.80
14670;DHT22;7423;48.722;9.350;2023-06-04T01:11:39;19.30;93.70
14670;DHT22;7423;48.722;9.350;2023-06-04T01:14:08;19.30;93.80
14670;DHT22;7423;48.722;9.350;2023-06-04T01:16:50;19.30;93.70
14670;DHT22;7423;48.722;9.350;2023-06-04T01:19:57;19.30;93.70
14670;DHT22;7423;48.722;9.350;2023-06-04T01:22:36;19.20;93.80
14670;DHT22;7423;48.722;9.350;2023-06-04T01:25:21;19.10;94.10
14670;DHT22;7423;48.722;9.350;2023-06-04T01:27:55;19.00;94.20
14670;DHT22;7423;48.722;9.350;2023-06-04T01:30:25;19.00;94.30
14670;DHT22;7423;48.722;9.350;2023-06-04T01:32:56;19.00;94.20
14670;DHT22;7423;48.722;9.350;2023-06-04T01:35:25;19.00;94.40
14670;DHT22;7423;48.722;9.350;2023-06-04T01:37:55;18.90;94.30
14670;DHT22;7423;48.722;9.350;2023-06-04T01:40:23;18.90;94.40
14670;DHT22;7423;48.722;9.350;2023-06-04T01:42:50;18.90;94.60
14670;DHT22;7423;48.722;9.350;2023-06-04T01:45:17;18.90;94.60
14670;DHT22;7423;48.722;9.350;2023-06-04T01:47:44;18.80;94.70
14670;DHT22;7423;48.722;9.350;2023-06-04T01:50:11;18.80;94.80
14670;DHT22;7423;48.722;9.350;2023-06-04T01:52:39;18.80;94.90
14670;DHT22;7423;48.722;9.350;2023-06-04T01:55:08;18.70;94.90
14670;DHT22;7423;48.722;9.350;2023-06-04T01:57:39;18.60;94.80
14670;DHT22;7423;48.722;9.350;2023-06-04T02:00:07;18.60;94.90
14670;DHT22;7423;48.722;9.350;2023-06-04T02:02:37;18.60;94.80
14670;DHT22;7423;48.722;9.350;2023-06-04T02:05:05;18.60;94.60
14670;DHT22;7423;48.722;9.350;2023-06-04T02:07:36;18.50;94.80
14670;DHT22;7423;48.722;9.350;2023-06-04T02:10:08;18.50;94.90
14670;DHT22;7423;48.722;9.350;2023-06-04T02:12:37;18.40;94.90
14670;DHT22;7423;48.722;9.350;2023-06-04T02:15:06;18.50;95.00
14670;DHT22;7423;48.722;9.350;2023-06-04T02:17:35;18.50;94.80
14670;DHT22;7423;48.722;9.350;2023-06-04T02:20:09;18.40;94.70
14670;DHT22;7423;48.722;9.350;2023-06-04T02:22:36;18.40;94.60
14670;DHT22;7423;48.722;9.350;2023-06-04T02:25:05;18.40;94.70
14670;DHT22;7423;48.722;9.350;2023-06-04T02:27:32;18.40;94.70
14670;DHT22;7423;48.722;9.350;2023-06-04T02:29:58;18.30;94.70
14670;DHT22;7423;48.722;9.350;2023-06-04T02:32:25;18.20;94.80
14670;DHT22;7423;48.722;9.350;2023-06-04T02:34:52;18.20;95.10
14670;DHT22;7423;48.722;9.350;2023-06-04T02:37:19;18.20;95.20
14670;DHT22;7423;48.722;9.350;2023-06-04T02:39:46;18.10;95.40
14670;DHT22;7423;48.722;9.350;2023-06-04T02:42:13;18.00;95.60
14670;DHT22;7423;48.722;9.350;2023-06-04T02:44:40;18.00;95.60
14670;DHT22;7423;48.722;9.350;2023-06-04T02:47:07;18.00;95.40
14670;DHT22;7423;48.722;9.350;2023-06-04T02:49:34;18.00;95.50
14670;DHT22;7423;48.722;9.350;2023-06-04T02:52:01;18.00;95.50
14670;DHT22;7423;48.722;9.350;2023-06-04T02:54:27;17.90;95.60
14670;DHT22;7423;48.722;9.350;2023-06-04T02:56:54;18.00;95.50
14670;DHT22;7423;48.722;9.350;2023-06-04T02:59:22;18.00;95.50
14670;DHT22;7423;48.722;9.350;2023-06-04T03:01:49;18.00;95.40
14670;DHT22;7423;48.722;9.350;2023-06-04T03:04:16;18.00;95.30
14670;DHT22;7423;48.722;9.350;2023-06-04T03:06:44;17.90;95.30
14670;DHT22;7423;48.722;9.350;2023-06-04T03:09:13;17.90;95.50
14670;DHT22;7423;48.722;9.350;2023-06-04T03:11:40;17.80;95.60
14670;DHT22;7423;48.722;9.350;2023-06-04T03:14:07;17.70;95.80
14670;DHT22;7423;48.722;9.350;2023-06-04T03:16:34;17.80;95.70
14670;DHT22;7423;48.722;9.350;2023-06-04T03:19:01;17.80;95.70
14670;DHT22;7423;48.722;9.350;2023-06-04T03:21:27;17.70;95.70
14670;DHT22;7423;48.722;9.350;2023-06-04T03:23:57;17.80;95.80
14670;DHT22;7423;48.722;9.350;2023-06-04T03:26:24;17.80;95.70
14670;DHT22;7423;48.722;9.350;2023-06-04T03:28:51;17.60;95.80
14670;DHT22;7423;48.722;9.350;2023-06-04T03:31:17;17.70;95.90
14670;DHT22;7423;48.722;9.350;2023-06-04T03:33:45;17.70;96.10
14670;DHT22;7423;48.722;9.350;2023-06-04T03:36:12;17.70;96.10
14670;DHT22;7423;48.722;9.350;2023-06-04T03:38:38;17.70;95.70
14670;DHT22;7423;48.722;9.350;2023-06-04T03:41:05;17.70;95.90
14670;DHT22;7423;48.722;9.350;2023-06-04T03:43:32;17.60;95.80
14670;DHT22;7423;48.722;9.350;2023-06-04T03:45:59;17.60;95.60
14670;DHT22;7423;48.722;9.350;2023-06-04T03:48:26;17.60;95.70
14670;DHT22;7423;48.722;9.350;2023-06-04T03:50:53;17.50;95.90
14670;DHT22;7423;48.722;9.350;2023-06-04T03:53:20;17.50;96.00
14670;DHT22;7423;48.722;9.350;2023-06-04T03:55:47;17.40;95.90
14670;DHT22;7423;48.722;9.350;2023-06-04T03:58:14;17.40;95.80
14670;DHT22;7423;48.722;9.350;2023-06-04T04:00:41;17.40;95.90
14670;DHT22;7423;48.722;9.350;2023-06-04T04:03:08;17.40;95.90
14670;DHT22;7423;48.722;9.350;2023-06-04T04:05:36;17.30;95.80
14670;DHT22;7423;48.722;9.350;2023-06-04T04:08:04;17.30;95.80
14670;DHT22;7423;48.722;9.350;2023-06-04T04:10:32;17.30;95.70
14670;DHT22;7423;48.722;9.350;2023-06-04T04:12:59;17.20;95.90
14670;DHT22;7423;48.722;9.350;2023-06-04T04:15:26;17.20;95.80
14670;DHT22;7423;48.722;9.350;2023-06-04T04:17:53;17.20;96.00
14670;DHT22;7423;48.722;9.350;2023-06-04T04:20:21;17.20;96.00
14670;DHT22;7423;48.722;9.350;2023-06-04T04:22:48;17.10;95.90
14670;DHT22;7423;48.722;9.350;2023-06-04T04:25:17;17.10;96.30
14670;DHT22;7423;48.722;9.350;2023-06-04T04:27:44;17.10;95.90
14670;DHT22;7423;48.722;9.350;2023-06-04T04:30:11;17.20;95.90
14670;DHT22;7423;48.722;9.350;2023-06-04T04:32:41;17.20;95.80
14670;DHT22;7423;48.722;9.350;2023-06-04T04:35:15;17.20;95.80
14670;DHT22;7423;48.722;9.350;2023-06-04T04:37:45;17.20;95.80
14670;DHT22;7423;48.722;9.350;2023-06-04T04:40:12;17.30;96.20
14670;DHT22;7423;48.722;9.350;2023-06-04T04:42:41;17.30;96.20
14670;DHT22;7423;48.722;9.350;2023-06-04T04:45:09;17.40;95.80
14670;DHT22;7423;48.722;9.350;2023-06-04T04:47:37;17.30;95.70
14670;DHT22;7423;48.722;9.350;2023-06-04T04:50:04;17.40;95.70
14670;DHT22;7423;48.722;9.350;2023-06-04T04:52:32;17.40;95.70
14670;DHT22;7423;48.722;9.350;2023-06-04T04:54:59;17.40;95.50
14670;DHT22;7423;48.722;9.350;2023-06-04T04:57:25;17.40;95.60
14670;DHT22;7423;48.722;9.350;2023-06-04T04:59:52;17.40;95.60
14670;DHT22;7423;48.722;9.350;2023-06-04T05:02:19;17.50;95.70
14670;DHT22;7423;48.722;9.350;2023-06-04T05:04:46;17.50;95.70
14670;DHT22;7423;48.722;9.350;2023-06-04T05:07:13;17.60;95.70
14670;DHT22;7423;48.722;9.350;2023-06-04T05:09:40;17.60;95.70
14670;DHT22;7423;48.722;9.350;2023-06-04T05:12:07;17.60;95.90
14670;DHT22;7423;48.722;9.350;2023-06-04T05:14:34;17.70;95.90
14670;DHT22;7423;48.722;9.350;2023-06-04T05:17:03;17.80;96.20
14670;DHT22;7423;48.722;9.350;2023-06-04T05:19:30;17.80;96.10
14670;DHT22;7423;48.722;9.350;2023-06-04T05:21:59;17.80;96.30
14670;DHT22;7423;48.722;9.350;2023-06-04T05:24:27;17.90;96.10
14670;DHT22;7423;48.722;9.350;2023-06-04T05:26:55;17.90;96.00
14670;DHT22;7423;48.722;9.350;2023-06-04T05:29:23;17.90;95.70
14670;DHT22;7423;48.722;9.350;2023-06-04T05:31:50;18.00;95.50
14670;DHT22;7423;48.722;9.350;2023-06-04T05:34:17;18.00;95.00
14670;DHT22;7423;48.722;9.350;2023-06-04T05:36:44;18.00;94.80
14670;DHT22;7423;48.722;9.350;2023-06-04T05:39:11;18.00;94.60
14670;DHT22;7423;48.722;9.350;2023-06-04T05:41:38;18.00;94.40
14670;DHT22;7423;48.722;9.350;2023-06-04T05:44:05;18.10;94.00
14670;DHT22;7423;48.722;9.350;2023-06-04T05:46:32;18.20;93.80
14670;DHT22;7423;48.722;9.350;2023-06-04T05:48:59;18.10;93.40
14670;DHT22;7423;48.722;9.350;2023-06-04T05:51:26;18.20;92.50
14670;DHT22;7423;48.722;9.350;2023-06-04T05:53:53;18.40;91.80
14670;DHT22;7423;48.722;9.350;2023-06-04T05:56:20;18.40;91.90
14670;DHT22;7423;48.722;9.350;2023-06-04T05:58:51;18.40;91.80
14670;DHT22;7423;48.722;9.350;2023-06-04T06:01:18;18.50;91.70
14670;DHT22;7423;48.722;9.350;2023-06-04T06:03:46;18.60;91.50
14670;DHT22;7423;48.722;9.350;2023-06-04T06:06:13;18.60;91.40
14670;DHT22;7423;48.722;9.350;2023-06-04T06:08:40;18.70;91.40
14670;DHT22;7423;48.722;9.350;2023-06-04T06:11:07;18.70;91.50
14670;DHT22;7423;48.722;9.350;2023-06-04T06:13:37;18.90;90.80
14670;DHT22;7423;48.722;9.350;2023-06-04T06:16:04;18.80;91.00
14670;DHT22;7423;48.722;9.350;2023-06-04T06:18:31;18.70;91.20
14670;DHT22;7423;48.722;9.350;2023-06-04T06:20:59;18.70;91.30
14670;DHT22;7423;48.722;9.350;2023-06-04T06:23:26;18.70;91.30
14670;DHT22;7423;48.722;9.350;2023-06-04T06:25:54;18.80;91.30
14670;DHT22;7423;48.722;9.350;2023-06-04T06:28:22;18.80;91.30
14670;DHT22;7423;48.722;9.350;2023-06-04T06:30:49;18.80;91.30
14670;DHT22;7423;48.722;9.350;2023-06-04T06:33:16;18.90;91.20
14670;DHT22;7423;48.722;9.350;2023-06-04T06:35:43;18.90;91.20
14670;DHT22;7423;48.722;9.350;2023-06-04T06:38:12;18.90;91.10
14670;DHT22;7423;48.722;9.350;2023-06-04T06:40:42;18.90;91.00
14670;DHT22;7423;48.722;9.350;2023-06-04T06:43:09;19.00;91.10
14670;DHT22;7423;48.722;9.350;2023-06-04T06:45:37;19.00;91.00
14670;DHT22;7423;48.722;9.350;2023-06-04T06:48:04;19.00;90.90
14670;DHT22;7423;48.722;9.350;2023-06-04T06:50:31;19.10;90.60
14670;DHT22;7423;48.722;9.350;2023-06-04T06:52:59;19.10;90.60
14670;DHT22;7423;48.722;9.350;2023-06-04T06:55:26;19.20;90.40
14670;DHT22;7423;48.722;9.350;2023-06-04T06:57:53;19.30;90.60
14670;DHT22;7423;48.722;9.350;2023-06-04T07:00:23;19.30;90.80
14670;DHT22;7423;48.722;9.350;2023-06-04T07:02:50;19.30;90.60
14670;DHT22;7423;48.722;9.350;2023-06-04T07:05:17;19.30;90.20
14670;DHT22;7423;48.722;9.350;2023-06-04T07:07:44;19.40;90.10
14670;DHT22;7423;48.722;9.350;2023-06-04T07:10:13;19.40;90.10
14670;DHT22;7423;48.722;9.350;2023-06-04T07:12:40;19.50;90.70
14670;DHT22;7423;48.722;9.350;2023-06-04T07:15:09;19.50;90.20
14670;DHT22;7423;48.722;9.350;2023-06-04T07:17:36;19.50;89.50
14670;DHT22;7423;48.722;9.350;2023-06-04T07:20:03;19.60;89.60
14670;DHT22;7423;48.722;9.350;2023-06-04T07:22:34;19.60;90.20
14670;DHT22;7423;48.722;9.350;2023-06-04T07:25:04;19.70;90.20
14670;DHT22;7423;48.722;9.350;2023-06-04T07:27:33;19.70;90.20
14670;DHT22;7423;48.722;9.350;2023-06-04T07:30:00;19.70;89.50
14670;DHT22;7423;48.722;9.350;2023-06-04T07:32:27;19.70;88.80
14670;DHT22;7423;48.722;9.350;2023-06-04T07:34:54;19.80;89.00
14670;DHT22;7423;48.722;9.350;2023-06-04T07:37:21;19.80;89.00
14670;DHT22;7423;48.722;9.350;2023-06-04T07:39:48;19.90;89.20
14670;DHT22;7423;48.722;9.350;2023-06-04T07:42:15;19.90;88.70
14670;DHT22;7423;48.722;9.350;2023-06-04T07:44:42;19.90;89.20
14670;DHT22;7423;48.722;9.350;2023-06-04T07:47:09;20.00;89.30
14670;DHT22;7423;48.722;9.350;2023-06-04T07:49:36;20.00;89.00
14670;DHT22;7423;48.722;9.350;2023-06-04T07:52:16;20.20;87.30
14670;DHT22;7423;48.722;9.350;2023-06-04T07:54:43;20.30;87.10
14670;DHT22;7423;48.722;9.350;2023-06-04T07:57:10;20.30;87.70
14670;DHT22;7423;48.722;9.350;2023-06-04T07:59:38;20.40;87.20
14670;DHT22;7423;48.722;9.350;2023-06-04T08:02:05;20.40;87.40
14670;DHT22;7423;48.722;9.350;2023-06-04T08:04:32;20.40;87.80
14670;DHT22;7423;48.722;9.350;2023-06-04T08:06:59;20.40;87.60
14670;DHT22;7423;48.722;9.350;2023-06-04T08:09:27;20.50;87.90
14670;DHT22;7423;48.722;9.350;2023-06-04T08:11:54;20.50;87.90
14670;DHT22;7423;48.722;9.350;2023-06-04T08:14:21;20.70;87.00
14670;DHT22;7423;48.722;9.350;2023-06-04T08:16:48;20.80;86.50
14670;DHT22;7423;48.722;9.350;2023-06-04T08:19:15;20.80;86.50
14670;DHT22;7423;48.722;9.350;2023-06-04T08:21:43;20.80;87.10
14670;DHT22;7423;48.722;9.350;2023-06-04T08:24:11;20.80;87.40
14670;DHT22;7423;48.722;9.350;2023-06-04T08:26:38;20.90;87.70
14670;DHT22;7423;48.722;9.350;2023-06-04T08:29:06;20.90;87.70
14670;DHT22;7423;48.722;9.350;2023-06-04T08:31:33;20.90;87.60
14670;DHT22;7423;48.722;9.350;2023-06-04T08:34:00;21.00;87.60
14670;DHT22;7423;48.722;9.350;2023-06-04T08:36:27;21.10;87.40
14670;DHT22;7423;48.722;9.350;2023-06-04T08:38:54;21.10;87.30
14670;DHT22;7423;48.722;9.350;2023-06-04T08:41:28;21.10;87.30
14670;DHT22;7423;48.722;9.350;2023-06-04T08:44:07;21.10;87.30
14670;DHT22;7423;48.722;9.350;2023-06-04T08:46:39;21.20;87.70
14670;DHT22;7423;48.722;9.350;2023-06-04T08:49:08;21.20;88.00
14670;DHT22;7423;48.722;9.350;2023-06-04T08:51:37;21.20;88.20
14670;DHT22;7423;48.722;9.350;2023-06-04T08:54:05;21.20;88.20
14670;DHT22;7423;48.722;9.350;2023-06-04T08:56:34;21.30;88.50
14670;DHT22;7423;48.722;9.350;2023-06-04T08:59:04;21.40;87.70
14670;DHT22;7423;48.722;9.350;2023-06-04T09:01:35;21.50;86.90
14670;DHT22;7423;48.722;9.350;2023-06-04T09:04:06;21.60;86.20
14670;DHT22;7423;48.722;9.350;2023-06-04T09:06:39;21.70;85.60
14670;DHT22;7423;48.722;9.350;2023-06-04T09:09:09;21.70;85.70
14670;DHT22;7423;48.722;9.350;2023-06-04T09:11:50;21.80;85.80
14670;DHT22;7423;48.722;9.350;2023-06-04T09:14:19;21.90;85.40
14670;DHT22;7423;48.722;9.350;2023-06-04T09:16:52;21.90;85.30
14670;DHT22;7423;48.722;9.350;2023-06-04T09:19:21;21.90;85.30
14670;DHT22;7423;48.722;9.350;2023-06-04T09:21:49;22.00;85.30
14670;DHT22;7423;48.722;9.350;2023-06-04T09:24:22;22.00;84.90
14670;DHT22;7423;48.722;9.350;2023-06-04T09:26:51;22.00;84.80
14670;DHT22;7423;48.722;9.350;2023-06-04T09:29:18;22.10;84.50
14670;DHT22;7423;48.722;9.350;2023-06-04T09:31:57;22.20;83.40
14670;DHT22;7423;48.722;9.350;2023-06-04T09:34:28;22.20;83.30
14670;DHT22;7423;48.722;9.350;2023-06-04T09:36:55;22.30;83.10
14670;DHT22;7423;48.722;9.350;2023-06-04T09:39:23;22.30;82.90
14670;DHT22;7423;48.722;9.350;2023-06-04T09:42:00;22.40;82.70
14670;DHT22;7423;48.722;9.350;2023-06-04T09:44:29;22.40;81.90
14670;DHT22;7423;48.722;9.350;2023-06-04T09:46:57;22.40;81.70
14670;DHT22;7423;48.722;9.350;2023-06-04T09:49:25;22.50;81.60
14670;DHT22;7423;48.722;9.350;2023-06-04T09:51:52;22.50;81.50
14670;DHT22;7423;48.722;9.350;2023-06-04T09:54:19;22.60;81.10
14670;DHT22;7423;48.722;9.350;2023-06-04T09:56:46;22.60;81.00
14670;DHT22;7423;48.722;9.350;2023-06-04T09:59:14;22.60;80.70
14670;DHT22;7423;48.722;9.350;2023-06-04T10:01:41;22.70;80.80
14670;DHT22;7423;48.722;9.350;2023-06-04T10:04:09;22.80;80.50
14670;DHT22;7423;48.722;9.350;2023-06-04T10:06:39;22.80;80.00
14670;DHT22;7423;48.722;9.350;2023-06-04T10:09:07;22.90;79.50
14670;DHT22;7423;48.722;9.350;2023-06-04T10:11:40;23.00;78.90
14670;DHT22;7423;48.722;9.350;2023-06-04T10:14:19;23.00;78.10
14670;DHT22;7423;48.722;9.350;2023-06-04T10:16:51;23.20;77.60
14670;DHT22;7423;48.722;9.350;2023-06-04T10:19:18;23.30;77.70
14670;DHT22;7423;48.722;9.350;2023-06-04T10:21:46;23.30;78.20
14670;DHT22;7423;48.722;9.350;2023-06-04T10:24:14;23.30;78.30
14670;DHT22;7423;48.722;9.350;2023-06-04T10:26:42;23.40;78.80
14670;DHT22;7423;48.722;9.350;2023-06-04T10:29:10;23.50;78.20
14670;DHT22;7423;48.722;9.350;2023-06-04T10:31:37;23.60;78.30
14670;DHT22;7423;48.722;9.350;2023-06-04T10:34:05;23.60;78.40
14670;DHT22;7423;48.722;9.350;2023-06-04T10:36:42;23.60;77.50
14670;DHT22;7423;48.722;9.350;2023-06-04T10:39:11;23.70;77.70
14670;DHT22;7423;48.722;9.350;2023-06-04T10:41:38;23.70;77.60
14670;DHT22;7423;48.722;9.350;2023-06-04T10:44:06;23.70;77.60
14670;DHT22;7423;48.722;9.350;2023-06-04T10:46:41;23.70;77.50
14670;DHT22;7423;48.722;9.350;2023-06-04T10:49:11;23.90;77.20
14670;DHT22;7423;48.722;9.350;2023-06-04T10:51:38;24.00;77.40
14670;DHT22;7423;48.722;9.350;2023-06-04T10:54:05;24.00;77.60
14670;DHT22;7423;48.722;9.350;2023-06-04T10:56:34;24.10;77.30
14670;DHT22;7423;48.722;9.350;2023-06-04T10:59:13;24.10;76.50
14670;DHT22;7423;48.722;9.350;2023-06-04T11:01:41;24.10;75.40
14670;DHT22;7423;48.722;9.350;2023-06-04T11:04:23;24.20;75.50
14670;DHT22;7423;48.722;9.350;2023-06-04T11:07:01;24.30;75.90
14670;DHT22;7423;48.722;9.350;2023-06-04T11:09:31;24.30;76.30
14670;DHT22;7423;48.722;9.350;2023-06-04T11:12:00;24.40;75.80
14670;DHT22;7423;48.722;9.350;2023-06-04T11:14:28;24.40;76.30
14670;DHT22;7423;48.722;9.350;2023-06-04T11:16:56;24.50;75.60
14670;DHT22;7423;48.722;9.350;2023-06-04T11:19:23;24.50;75.20
14670;DHT22;7423;48.722;9.350;2023-06-04T11:21:50;24.60;76.10
14670;DHT22;7423;48.722;9.350;2023-06-04T11:24:17;24.60;76.10
14670;DHT22;7423;48.722;9.350;2023-06-04T11:26:44;24.60;74.60
14670;DHT22;7423;48.722;9.350;2023-06-04T11:29:22;24.70;76.10
14670;DHT22;7423;48.722;9.350;2023-06-04T11:31:49;24.80;76.40
14670;DHT22;7423;48.722;9.350;2023-06-04T11:34:29;24.80;76.10
14670;DHT22;7423;48.722;9.350;2023-06-04T11:37:09;25.00;75.80
14670;DHT22;7423;48.722;9.350;2023-06-04T11:39:36;25.00;75.10
14670;DHT22;7423;48.722;9.350;2023-06-04T11:42:05;25.00;73.00
14670;DHT22;7423;48.722;9.350;2023-06-04T11:44:34;25.00;73.40
14670;DHT22;7423;48.722;9.350;2023-06-04T11:47:04;24.90;72.00
14670;DHT22;7423;48.722;9.350;2023-06-04T11:49:34;25.00;72.20
14670;DHT22;7423;48.722;9.350;2023-06-04T11:52:02;25.00;72.00
14670;DHT22;7423;48.722;9.350;2023-06-04T11:54:32;25.10;71.20
14670;DHT22;7423;48.722;9.350;2023-06-04T11:57:05;25.20;71.60
14670;DHT22;7423;48.722;9.350;2023-06-04T11:59:32;25.40;71.50
14670;DHT22;7423;48.722;9.350;2023-06-04T12:01:59;25.60;71.60
14670;DHT22;7423;48.722;9.350;2023-06-04T12:04:29;25.70;71.10
14670;DHT22;7423;48.722;9.350;2023-06-04T12:06:59;25.70;70.00
14670;DHT22;7423;48.722;9.350;2023-06-04T12:09:31;25.90;69.10
14670;DHT22;7423;48.722;9.350;2023-06-04T12:12:02;25.90;69.50
14670;DHT22;7423;48.722;9.350;2023-06-04T12:14:33;26.00;68.80
14670;DHT22;7423;48.722;9.350;2023-06-04T12:17:05;26.10;68.80
14670;DHT22;7423;48.722;9.350;2023-06-04T12:19:51;26.10;68.20
14670;DHT22;7423;48.722;9.350;2023-06-04T12:22:19;26.00;67.50
14670;DHT22;7423;48.722;9.350;2023-06-04T12:24:53;25.90;67.40
14670;DHT22;7423;48.722;9.350;2023-06-04T12:27:23;25.90;68.00
14670;DHT22;7423;48.722;9.350;2023-06-04T12:30:03;25.90;67.10
14670;DHT22;7423;48.722;9.350;2023-06-04T12:32:35;26.00;67.90
14670;DHT22;7423;48.722;9.350;2023-06-04T12:35:02;25.90;66.80
14670;DHT22;7423;48.722;9.350;2023-06-04T12:37:30;25.80;66.30
14670;DHT22;7423;48.722;9.350;2023-06-04T12:39:57;26.10;66.70
14670;DHT22;7423;48.722;9.350;2023-06-04T12:42:24;26.10;67.00
14670;DHT22;7423;48.722;9.350;2023-06-04T12:44:51;26.10;63.40
14670;DHT22;7423;48.722;9.350;2023-06-04T12:47:18;26.10;63.70
14670;DHT22;7423;48.722;9.350;2023-06-04T12:49:45;26.10;65.00
14670;DHT22;7423;48.722;9.350;2023-06-04T12:52:11;26.00;66.10
14670;DHT22;7423;48.722;9.350;2023-06-04T12:54:41;26.10;67.00
14670;DHT22;7423;48.722;9.350;2023-06-04T12:57:08;26.10;66.50
14670;DHT22;7423;48.722;9.350;2023-06-04T12:59:35;26.10;66.40
14670;DHT22;7423;48.722;9.350;2023-06-04T13:02:02;26.20;64.30
14670;DHT22;7423;48.722;9.350;2023-06-04T13:04:29;26.40;66.50
14670;DHT22;7423;48.722;9.350;2023-06-04T13:06:56;26.40;66.00
14670;DHT22;7423;48.722;9.350;2023-06-04T13:09:26;26.50;66.60
14670;DHT22;7423;48.722;9.350;2023-06-04T13:11:54;26.50;66.50
14670;DHT22;7423;48.722;9.350;2023-06-04T13:14:21;26.40;66.30
14670;DHT22;7423;48.722;9.350;2023-06-04T13:16:48;26.40;65.80
14670;DHT22;7423;48.722;9.350;2023-06-04T13:19:18;26.50;64.40
14670;DHT22;7423;48.722;9.350;2023-06-04T13:21:47;26.50;66.40
14670;DHT22;7423;48.722;9.350;2023-06-04T13:24:14;26.60;67.60
14670;DHT22;7423;48.722;9.350;2023-06-04T13:26:42;26.60;67.50
14670;DHT22;7423;48.722;9.350;2023-06-04T13:29:09;26.60;67.80
14670;DHT22;7423;48.722;9.350;2023-06-04T13:31:36;26.70;67.70
14670;DHT22;7423;48.722;9.350;2023-06-04T13:34:06;26.70;65.50
14670;DHT22;7423;48.722;9.350;2023-06-04T13:36:52;26.50;64.10
14670;DHT22;7423;48.722;9.350;2023-06-04T13:39:19;26.40;64.20
14670;DHT22;7423;48.722;9.350;2023-06-04T13:41:45;26.50;64.10
14670;DHT22;7423;48.722;9.350;2023-06-04T13:44:12;26.60;64.40
14670;DHT22;7423;48.722;9.350;2023-06-04T13:46:41;26.60;66.20
14670;DHT22;7423;48.722;9.350;2023-06-04T13:49:08;26.50;66.50
14670;DHT22;7423;48.722;9.350;2023-06-04T13:51:35;26.60;65.20
14670;DHT22;7423;48.722;9.350;2023-06-04T13:54:02;26.60;64.10
14670;DHT22;7423;48.722;9.350;2023-06-04T13:56:29;26.60;66.00
14670;DHT22;7423;48.722;9.350;2023-06-04T13:58:56;26.60;62.00
14670;DHT22;7423;48.722;9.350;2023-06-04T14:01:23;26.60;62.80
14670;DHT22;7423;48.722;9.350;2023-06-04T14:03:50;26.50;62.90
14670;DHT22;7423;48.722;9.350;2023-06-04T14:06:18;26.60;63.80
14670;DHT22;7423;48.722;9.350;2023-06-04T14:08:45;26.50;63.90
14670;DHT22;7423;48.722;9.350;2023-06-04T14:11:12;26.60;64.60
14670;DHT22;7423;48.722;9.350;2023-06-04T14:13:39;26.60;62.60
14670;DHT22;7423;48.722;9.350;2023-06-04T14:16:07;26.70;62.60
14670;DHT22;7423;48.722;9.350;2023-06-04T14:18:34;26.60;65.20
14670;DHT22;7423;48.722;9.350;2023-06-04T14:21:01;26.80;65.90
14670;DHT22;7423;48.722;9.350;2023-06-04T14:23:28;26.70;64.00
14670;DHT22;7423;48.722;9.350;2023-06-04T14:25:55;26.80;64.40
14670;DHT22;7423;48.722;9.350;2023-06-04T14:28:22;26.80;64.70
14670;DHT22;7423;48.722;9.350;2023-06-04T14:30:49;26.80;64.70
14670;DHT22;7423;48.722;9.350;2023-06-04T14:33:17;26.80;63.50
14670;DHT22;7423;48.722;9.350;2023-06-04T14:35:44;26.80;64.20
14670;DHT22;7423;48.722;9.350;2023-06-04T14:38:14;26.80;65.30
14670;DHT22;7423;48.722;9.350;2023-06-04T14:40:42;26.70;64.00
14670;DHT22;7423;48.722;9.350;2023-06-04T14:43:13;26.60;63.80
14670;DHT22;7423;48.722;9.350;2023-06-04T14:45:40;26.70;63.00
14670;DHT22;7423;48.722;9.350;2023-06-04T14:48:07;26.60;61.60
14670;DHT22;7423;48.722;9.350;2023-06-04T14:50:38;26.60;62.10
14670;DHT22;7423;48.722;9.350;2023-06-04T14:53:05;26.70;60.50
14670;DHT22;7423;48.722;9.350;2023-06-04T14:55:36;26.70;60.90
14670;DHT22;7423;48.722;9.350;2023-06-04T14:58:03;26.80;61.40
14670;DHT22;7423;48.722;9.350;2023-06-04T15:00:31;26.60;60.90
14670;DHT22;7423;48.722;9.350;2023-06-04T15:02:58;26.60;61.00
14670;DHT22;7423;48.722;9.350;2023-06-04T15:05:30;26.50;61.20
14670;DHT22;7423;48.722;9.350;2023-06-04T15:07:58;26.50;60.40
14670;DHT22;7423;48.722;9.350;2023-06-04T15:10:25;26.60;60.10
14670;DHT22;7423;48.722;9.350;2023-06-04T15:12:53;26.60;60.00
14670;DHT22;7423;48.722;9.350;2023-06-04T15:15:20;26.70;59.60
14670;DHT22;7423;48.722;9.350;2023-06-04T15:17:48;26.70;59.90
14670;DHT22;7423;48.722;9.350;2023-06-04T15:20:15;26.70;60.40
14670;DHT22;7423;48.722;9.350;2023-06-04T15:22:42;26.60;59.80
14670;DHT22;7423;48.722;9.350;2023-06-04T15:25:09;26.70;59.80
14670;DHT22;7423;48.722;9.350;2023-06-04T15:27:37;26.80;59.90
14670;DHT22;7423;48.722;9.350;2023-06-04T15:30:08;26.80;59.50
14670;DHT22;7423;48.722;9.350;2023-06-04T15:32:35;26.60;59.80
14670;DHT22;7423;48.722;9.350;2023-06-04T15:35:05;26.60;60.40
14670;DHT22;7423;48.722;9.350;2023-06-04T15:37:32;26.80;59.60
14670;DHT22;7423;48.722;9.350;2023-06-04T15:39:59;26.80;59.40
14670;DHT22;7423;48.722;9.350;2023-06-04T15:42:27;26.80;59.40
14670;DHT22;7423;48.722;9.350;2023-06-04T15:44:54;26.80;59.20
14670;DHT22;7423;48.722;9.350;2023-06-04T15:47:22;26.80;58.80
14670;DHT22;7423;48.722;9.350;2023-06-04T15:49:49;26.80;59.50
14670;DHT22;7423;48.722;9.350;2023-06-04T15:52:16;26.80;59.70
14670;DHT22;7423;48.722;9.350;2023-06-04T15:54:43;27.00;59.90